Ciutat Vella, Spain
Current Conditions -  °F | °C
As of 7:00 PM on Thursday 30 Oct 2014 (Local Time) from LEBL Reporting Station
Few Clouds Few Clouds  
Wind Chill: 66°   Ceiling: Unl
Heat Index: 66°   Visibility: 6mi
Dew Point: 61°   Wind: 1mph
Humidity: 83%   Direction: NA
Pressure: 30.21"   Gusts: NA
Location:  41.38°N, 2.17°E
Report Text: LEBL 301800Z VRB01KT 9999 FEW016 19/16 Q1023 NOSIG
Loading
Personal Weather Stations






























Interactive Weather Map
Tropical Storm Tracking
New forecast layout! Learn more

10-Day Weather Forecast

Advertisements
Track Severe Weather on mobile